Bao An Cheng 69 — BVBD5 — position and weather

sailwx.info

Track history (hours):
 
Tides and Currents Weather Stations Pressure Air Temp Water Temp Dewpoint Dewpoint Depression Visibility Wind Speed Wind Dir Waves Ship Positions

Bao An Cheng 69

Last reported at 2014-Jul-30 02:11 UTC. Time now 2014-Jul-30 15:21 UTC.
Position N 22°04' E 114°15'.

Length 121 m; draft 6.7 m.

MMSI: 412703090.

Date/timePositionNaut miles runAvg speedWind from/ knotsBaromVisibWave heightAir tempDewpointWater temp
2014-Jul-30 02:11N 22°04' E 114°15'17 9.2
2014-Jul-30 00:18N 21°57' E 113°58'27 9.6
2014-Jul-29 21:30N 21°45' E 113°33'191 8.7
2014-Jul-28 23:33N 20°14' E 110°33'8 8.1
2014-Jul-28 22:32N 20°12' E 110°24'8 7.7
2014-Jul-28 21:33N 20°08' E 110°17'6 5.0
2014-Jul-28 20:24N 20°02' E 110°17'0 0.0
2014-Jul-28 19:24N 20°02' E 110°17'0 0.0
2014-Jul-28 18:24N 20°02' E 110°17'0 0.0
2014-Jul-28 17:18N 20°02' E 110°17'0 0.0
2014-Jul-28 16:30N 20°02' E 110°17'0 0.0
2014-Jul-28 15:30N 20°02' E 110°17'0 0.0
2014-Jul-28 14:18N 20°02' E 110°17'0 0.0
2014-Jul-28 13:24N 20°02' E 110°17'0 0.0
2014-Jul-28 12:30N 20°02' E 110°17'0 0.0
2014-Jul-28 11:24N 20°02' E 110°17'0 0.0
2014-Jul-28 10:18N 20°02' E 110°17'0 0.0
2014-Jul-28 09:06N 20°02' E 110°17'0 0.0
2014-Jul-28 08:24N 20°02' E 110°17'0 0.0
2014-Jul-28 07:30N 20°02' E 110°17'0 0.0
2014-Jul-28 06:24N 20°02' E 110°17'0 0.0
2014-Jul-28 05:18N 20°02' E 110°17'0 0.0
2014-Jul-28 03:30N 20°02' E 110°17'0 0.0
2014-Jul-28 00:30N 20°02' E 110°17'0 0.0
2014-Jul-27 23:30N 20°02' E 110°17'0 0.1
2014-Jul-27 22:33N 20°02' E 110°17'3 2.7
2014-Jul-27 21:32N 20°05' E 110°17'0 0.0
2014-Jul-27 20:26N 20°05' E 110°17'0 0.0
2014-Jul-27 19:20N 20°05' E 110°17'0 0.0
2014-Jul-27 13:26N 20°05' E 110°18'0 0.0
2014-Jul-27 12:26N 20°05' E 110°18'0 0.0
2014-Jul-27 11:30N 20°05' E 110°18'0 0.0
2014-Jul-27 10:24N 20°05' E 110°18'0 0.0
2014-Jul-27 09:18N 20°05' E 110°18'0 0.1
2014-Jul-27 08:15N 20°05' E 110°17'0 0.1
2014-Jul-27 07:33N 20°05' E 110°17'0 0.0
2014-Jul-27 06:25N 20°05' E 110°17'0 0.0
2014-Jul-27 04:25N 20°05' E 110°17'0 0.0
2014-Jul-27 02:13N 20°05' E 110°17'0 0.0
2014-Jul-27 00:25N 20°05' E 110°17'0 0.0
2014-Jul-26 23:32N 20°05' E 110°17'0 0.0
2014-Jul-26 22:31N 20°05' E 110°17'0 0.0
2014-Jul-26 21:31N 20°05' E 110°17'0 0.0
2014-Jul-26 20:14N 20°05' E 110°17'0 0.0
2014-Jul-26 19:13N 20°05' E 110°17'0 0.0
2014-Jul-26 18:31N 20°05' E 110°17'0 0.1
2014-Jul-26 17:25N 20°05' E 110°17'0 0.0
2014-Jul-26 15:31N 20°05' E 110°18'0 0.0
2014-Jul-26 13:25N 20°05' E 110°18'0 0.0
2014-Jul-26 11:31N 20°05' E 110°18'0 0.0
2014-Jul-26 10:20N 20°05' E 110°18'0 0.0
2014-Jul-26 08:31N 20°05' E 110°18'0 0.1
2014-Jul-26 07:31N 20°05' E 110°17'0 0.0
2014-Jul-26 06:14N 20°05' E 110°17'0 0.0
2014-Jul-26 05:19N 20°05' E 110°17'0 0.0
2014-Jul-26 04:13N 20°05' E 110°17'0 0.0
2014-Jul-26 03:19N 20°05' E 110°17'0 0.0
2014-Jul-26 02:31N 20°05' E 110°17'0 0.0
2014-Jul-26 01:20N 20°05' E 110°17'0 0.0
2014-Jul-26 00:25N 20°05' E 110°17'0 0.0
2014-Jul-25 22:20N 20°05' E 110°17'0 0.0
2014-Jul-25 20:26N 20°05' E 110°17'0 0.0
2014-Jul-25 19:33N 20°05' E 110°17'0 0.0
2014-Jul-25 18:30N 20°05' E 110°17'0 0.0
2014-Jul-25 17:24N 20°05' E 110°17'0 0.0
2014-Jul-25 16:24N 20°05' E 110°17'0 0.1
2014-Jul-25 15:30N 20°05' E 110°17'0 0.0
2014-Jul-25 13:30N 20°05' E 110°18'0 0.0
2014-Jul-25 11:18N 20°05' E 110°18'0 0.0
2014-Jul-25 10:06N 20°05' E 110°18'0 0.0
2014-Jul-25 09:12N 20°05' E 110°18'0 0.0
2014-Jul-25 07:18N 20°05' E 110°18'0 0.0
2014-Jul-25 06:24N 20°05' E 110°18'0 0.1
2014-Jul-25 05:06N 20°05' E 110°17'0 0.0
2014-Jul-25 04:24N 20°05' E 110°17'0 0.0
2014-Jul-25 02:18N 20°05' E 110°17'0 0.0
2014-Jul-25 01:30N 20°05' E 110°17'0 0.0
2014-Jul-25 00:24N 20°05' E 110°17'0 0.0
2014-Jul-24 23:15N 20°05' E 110°17'0 0.0
2014-Jul-24 22:33N 20°05' E 110°17'0 0.0
2014-Jul-24 21:27N 20°05' E 110°17'0 0.0
2014-Jul-24 19:09N 20°05' E 110°17'0 0.0
2014-Jul-24 18:27N 20°05' E 110°17'0 0.0
2014-Jul-24 16:06N 20°05' E 110°17'0 0.1
2014-Jul-24 14:24N 20°05' E 110°18'0 0.1
2014-Jul-24 13:18N 20°05' E 110°18'0 0.0
2014-Jul-24 11:24N 20°05' E 110°18'0 0.0
2014-Jul-24 10:30N 20°05' E 110°18'0 0.0
2014-Jul-24 08:30N 20°05' E 110°18'0 0.0
2014-Jul-24 07:18N 20°05' E 110°18'0 0.0
2014-Jul-24 06:24N 20°05' E 110°18'0 0.0
2014-Jul-24 05:24N 20°05' E 110°18'0 0.1
2014-Jul-24 03:06N 20°05' E 110°17'0 0.0
2014-Jul-24 02:18N 20°05' E 110°17'0 0.0
2014-Jul-24 01:24N 20°05' E 110°17'0 0.1
2014-Jul-24 00:30N 20°05' E 110°17'  
2014-Jul-21 05:03N 20°05' E 110°17'0 0.0
2014-Jul-21 03:09N 20°05' E 110°17'0 0.0
2014-Jul-21 02:03N 20°05' E 110°17'0 0.0
2014-Jul-21 01:15N 20°05' E 110°17'0 0.0
2014-Jul-20 23:33N 20°05' E 110°17'0 0.0
2014-Jul-20 21:31N 20°05' E 110°17'0 0.0
2014-Jul-20 20:13N 20°05' E 110°17'0 0.0
2014-Jul-20 17:31N 20°05' E 110°17'0 0.0
2014-Jul-20 16:19N 20°05' E 110°17'0 0.0
2014-Jul-20 15:19N 20°05' E 110°17'0 0.0
2014-Jul-20 14:13N 20°05' E 110°17'0 0.0
2014-Jul-20 13:13N 20°05' E 110°17'0 0.0
2014-Jul-20 12:31N 20°05' E 110°17'0 0.0
2014-Jul-20 10:13N 20°05' E 110°17'0 0.1
2014-Jul-20 09:25N 20°05' E 110°17'0 0.1
2014-Jul-20 07:19N 20°05' E 110°18'0 0.5
2014-Jul-20 06:34N 20°05' E 110°17'6 6.2
2014-Jul-20 05:33N 20°11' E 110°16'9 9.4
2014-Jul-20 04:33N 20°13' E 110°26'  
Track history (hours):
 
Tides and Currents Weather Stations Pressure Air Temp Water Temp Dewpoint Dewpoint Depression Visibility Wind Speed Wind Dir Waves Ship Positions

Bao An Cheng 69

Last reported at 2014-Jul-30 02:11 UTC. Time now 2014-Jul-30 15:21 UTC.
Position N 22°04' E 114°15'.

Length 121 m; draft 6.7 m.

MMSI: 412703090.

Date/timePositionNaut miles runAvg speedWind from/ knotsBaromVisibWave heightAir tempDewpointWater temp
2014-Jul-30 02:11N 22°04' E 114°15'17 9.2
2014-Jul-30 00:18N 21°57' E 113°58'27 9.6
2014-Jul-29 21:30N 21°45' E 113°33'191 8.7
2014-Jul-28 23:33N 20°14' E 110°33'8 8.1
2014-Jul-28 22:32N 20°12' E 110°24'8 7.7
2014-Jul-28 21:33N 20°08' E 110°17'6 5.0
2014-Jul-28 20:24N 20°02' E 110°17'0 0.0
2014-Jul-28 19:24N 20°02' E 110°17'0 0.0
2014-Jul-28 18:24N 20°02' E 110°17'0 0.0
2014-Jul-28 17:18N 20°02' E 110°17'0 0.0
2014-Jul-28 16:30N 20°02' E 110°17'0 0.0
2014-Jul-28 15:30N 20°02' E 110°17'0 0.0
2014-Jul-28 14:18N 20°02' E 110°17'0 0.0
2014-Jul-28 13:24N 20°02' E 110°17'0 0.0
2014-Jul-28 12:30N 20°02' E 110°17'0 0.0
2014-Jul-28 11:24N 20°02' E 110°17'0 0.0
2014-Jul-28 10:18N 20°02' E 110°17'0 0.0
2014-Jul-28 09:06N 20°02' E 110°17'0 0.0
2014-Jul-28 08:24N 20°02' E 110°17'0 0.0
2014-Jul-28 07:30N 20°02' E 110°17'0 0.0
2014-Jul-28 06:24N 20°02' E 110°17'0 0.0
2014-Jul-28 05:18N 20°02' E 110°17'0 0.0
2014-Jul-28 03:30N 20°02' E 110°17'0 0.0
2014-Jul-28 00:30N 20°02' E 110°17'0 0.0
2014-Jul-27 23:30N 20°02' E 110°17'0 0.1
2014-Jul-27 22:33N 20°02' E 110°17'3 2.7
2014-Jul-27 21:32N 20°05' E 110°17'0 0.0
2014-Jul-27 20:26N 20°05' E 110°17'0 0.0
2014-Jul-27 19:20N 20°05' E 110°17'0 0.0
2014-Jul-27 13:26N 20°05' E 110°18'0 0.0
2014-Jul-27 12:26N 20°05' E 110°18'0 0.0
2014-Jul-27 11:30N 20°05' E 110°18'0 0.0
2014-Jul-27 10:24N 20°05' E 110°18'0 0.0
2014-Jul-27 09:18N 20°05' E 110°18'0 0.1
2014-Jul-27 08:15N 20°05' E 110°17'0 0.1
2014-Jul-27 07:33N 20°05' E 110°17'0 0.0
2014-Jul-27 06:25N 20°05' E 110°17'0 0.0
2014-Jul-27 04:25N 20°05' E 110°17'0 0.0
2014-Jul-27 02:13N 20°05' E 110°17'0 0.0
2014-Jul-27 00:25N 20°05' E 110°17'0 0.0
2014-Jul-26 23:32N 20°05' E 110°17'0 0.0
2014-Jul-26 22:31N 20°05' E 110°17'0 0.0
2014-Jul-26 21:31N 20°05' E 110°17'0 0.0
2014-Jul-26 20:14N 20°05' E 110°17'0 0.0
2014-Jul-26 19:13N 20°05' E 110°17'0 0.0
2014-Jul-26 18:31N 20°05' E 110°17'0 0.1
2014-Jul-26 17:25N 20°05' E 110°17'0 0.0
2014-Jul-26 15:31N 20°05' E 110°18'0 0.0
2014-Jul-26 13:25N 20°05' E 110°18'0 0.0
2014-Jul-26 11:31N 20°05' E 110°18'0 0.0
2014-Jul-26 10:20N 20°05' E 110°18'0 0.0
2014-Jul-26 08:31N 20°05' E 110°18'0 0.1
2014-Jul-26 07:31N 20°05' E 110°17'0 0.0
2014-Jul-26 06:14N 20°05' E 110°17'0 0.0
2014-Jul-26 05:19N 20°05' E 110°17'0 0.0
2014-Jul-26 04:13N 20°05' E 110°17'0 0.0
2014-Jul-26 03:19N 20°05' E 110°17'0 0.0
2014-Jul-26 02:31N 20°05' E 110°17'0 0.0
2014-Jul-26 01:20N 20°05' E 110°17'0 0.0
2014-Jul-26 00:25N 20°05' E 110°17'0 0.0
2014-Jul-25 22:20N 20°05' E 110°17'0 0.0
2014-Jul-25 20:26N 20°05' E 110°17'0 0.0
2014-Jul-25 19:33N 20°05' E 110°17'0 0.0
2014-Jul-25 18:30N 20°05' E 110°17'0 0.0
2014-Jul-25 17:24N 20°05' E 110°17'0 0.0
2014-Jul-25 16:24N 20°05' E 110°17'0 0.1
2014-Jul-25 15:30N 20°05' E 110°17'0 0.0
2014-Jul-25 13:30N 20°05' E 110°18'0 0.0
2014-Jul-25 11:18N 20°05' E 110°18'0 0.0
2014-Jul-25 10:06N 20°05' E 110°18'0 0.0
2014-Jul-25 09:12N 20°05' E 110°18'0 0.0
2014-Jul-25 07:18N 20°05' E 110°18'0 0.0
2014-Jul-25 06:24N 20°05' E 110°18'0 0.1
2014-Jul-25 05:06N 20°05' E 110°17'0 0.0
2014-Jul-25 04:24N 20°05' E 110°17'0 0.0
2014-Jul-25 02:18N 20°05' E 110°17'0 0.0
2014-Jul-25 01:30N 20°05' E 110°17'0 0.0
2014-Jul-25 00:24N 20°05' E 110°17'0 0.0
2014-Jul-24 23:15N 20°05' E 110°17'0 0.0
2014-Jul-24 22:33N 20°05' E 110°17'0 0.0
2014-Jul-24 21:27N 20°05' E 110°17'0 0.0
2014-Jul-24 19:09N 20°05' E 110°17'0 0.0
2014-Jul-24 18:27N 20°05' E 110°17'0 0.0
2014-Jul-24 16:06N 20°05' E 110°17'0 0.1
2014-Jul-24 14:24N 20°05' E 110°18'0 0.1
2014-Jul-24 13:18N 20°05' E 110°18'0 0.0
2014-Jul-24 11:24N 20°05' E 110°18'0 0.0
2014-Jul-24 10:30N 20°05' E 110°18'0 0.0
2014-Jul-24 08:30N 20°05' E 110°18'0 0.0
2014-Jul-24 07:18N 20°05' E 110°18'0 0.0
2014-Jul-24 06:24N 20°05' E 110°18'0 0.0
2014-Jul-24 05:24N 20°05' E 110°18'0 0.1
2014-Jul-24 03:06N 20°05' E 110°17'0 0.0
2014-Jul-24 02:18N 20°05' E 110°17'0 0.0
2014-Jul-24 01:24N 20°05' E 110°17'0 0.1
2014-Jul-24 00:30N 20°05' E 110°17'  
2014-Jul-21 05:03N 20°05' E 110°17'0 0.0
2014-Jul-21 03:09N 20°05' E 110°17'0 0.0
2014-Jul-21 02:03N 20°05' E 110°17'0 0.0
2014-Jul-21 01:15N 20°05' E 110°17'0 0.0
2014-Jul-20 23:33N 20°05' E 110°17'0 0.0
2014-Jul-20 21:31N 20°05' E 110°17'0 0.0
2014-Jul-20 20:13N 20°05' E 110°17'0 0.0
2014-Jul-20 17:31N 20°05' E 110°17'0 0.0
2014-Jul-20 16:19N 20°05' E 110°17'0 0.0
2014-Jul-20 15:19N 20°05' E 110°17'0 0.0
2014-Jul-20 14:13N 20°05' E 110°17'0 0.0
2014-Jul-20 13:13N 20°05' E 110°17'0 0.0
2014-Jul-20 12:31N 20°05' E 110°17'0 0.0
2014-Jul-20 10:13N 20°05' E 110°17'0 0.1
2014-Jul-20 09:25N 20°05' E 110°17'0 0.1
2014-Jul-20 07:19N 20°05' E 110°18'0 0.5
2014-Jul-20 06:34N 20°05' E 110°17'6 6.2
2014-Jul-20 05:33N 20°11' E 110°16'9 9.4
2014-Jul-20 04:33N 20°13' E 110°26'  

Dump ship's entire track history